Аэропорт: Чертовицкое. Воронеж

ICAO: UUOO

METAR:
2020-08-09 23:00:00
UUOO 092300Z 30002MPS CAVOK 17/13 Q1014 R30/090070 NOSIG RMK QFE747
METAR:
2020-08-09 20:00:00
TAF UUOO 092000Z 0921/1006 35003MPS CAVOK